sensor_id;sensor_type;location;lat;lon;timestamp;pressure;altitude;pressure_sealevel;temperature;humidity
77161;BME280;66135;0.000;0.000;2024-01-07T00:03:40;101546.50;;;18.93;60.28
77161;BME280;66135;0.000;0.000;2024-01-07T00:06:10;101552.25;;;18.90;60.31
77161;BME280;66135;0.000;0.000;2024-01-07T00:08:35;101551.56;;;18.88;60.27
77161;BME280;66135;0.000;0.000;2024-01-07T00:11:01;101553.44;;;18.88;60.16
77161;BME280;66135;0.000;0.000;2024-01-07T00:13:26;101560.03;;;18.85;60.28
77161;BME280;66135;0.000;0.000;2024-01-07T00:15:51;101549.50;;;18.82;59.89
77161;BME280;66135;0.000;0.000;2024-01-07T00:18:19;101564.94;;;18.82;60.13
77161;BME280;66135;0.000;0.000;2024-01-07T00:20:44;101554.25;;;18.80;60.19
77161;BME280;66135;0.000;0.000;2024-01-07T00:23:09;101550.84;;;18.78;60.45
77161;BME280;66135;0.000;0.000;2024-01-07T00:25:35;101557.28;;;18.77;60.17
77161;BME280;66135;0.000;0.000;2024-01-07T00:28:00;101562.84;;;18.76;60.13
77161;BME280;66135;0.000;0.000;2024-01-07T00:30:26;101564.91;;;18.74;60.08
77161;BME280;66135;0.000;0.000;2024-01-07T00:32:52;101558.63;;;18.73;60.08
77161;BME280;66135;0.000;0.000;2024-01-07T00:35:17;101564.38;;;18.70;59.89
77161;BME280;66135;0.000;0.000;2024-01-07T00:37:43;101565.53;;;18.68;59.96
77161;BME280;66135;0.000;0.000;2024-01-07T00:40:09;101568.25;;;18.68;59.74
77161;BME280;66135;0.000;0.000;2024-01-07T00:42:34;101568.25;;;18.68;60.02
77161;BME280;66135;0.000;0.000;2024-01-07T00:45:00;101579.13;;;18.68;59.83
77161;BME280;66135;0.000;0.000;2024-01-07T00:47:25;101578.75;;;18.63;59.52
77161;BME280;66135;0.000;0.000;2024-01-07T00:49:51;101573.31;;;18.63;59.89
77161;BME280;66135;0.000;0.000;2024-01-07T00:52:16;101583.47;;;18.61;60.12
77161;BME280;66135;0.000;0.000;2024-01-07T00:54:41;101582.63;;;18.60;59.56
77161;BME280;66135;0.000;0.000;2024-01-07T00:57:06;101587.22;;;18.60;59.82
77161;BME280;66135;0.000;0.000;2024-01-07T00:59:32;101594.81;;;18.56;59.70
77161;BME280;66135;0.000;0.000;2024-01-07T01:01:57;101586.00;;;18.54;59.89
77161;BME280;66135;0.000;0.000;2024-01-07T01:04:22;101598.84;;;18.52;59.94
77161;BME280;66135;0.000;0.000;2024-01-07T01:06:48;101594.47;;;18.51;59.80
77161;BME280;66135;0.000;0.000;2024-01-07T01:09:13;101598.16;;;18.50;59.70
77161;BME280;66135;0.000;0.000;2024-01-07T01:11:38;101597.28;;;18.50;59.72
77161;BME280;66135;0.000;0.000;2024-01-07T01:14:04;101594.75;;;18.48;59.80
77161;BME280;66135;0.000;0.000;2024-01-07T01:16:29;101600.50;;;18.45;59.94
77161;BME280;66135;0.000;0.000;2024-01-07T01:18:54;101610.81;;;18.42;59.60
77161;BME280;66135;0.000;0.000;2024-01-07T01:21:20;101613.22;;;18.45;59.70
77161;BME280;66135;0.000;0.000;2024-01-07T01:23:46;101600.66;;;18.44;59.39
77161;BME280;66135;0.000;0.000;2024-01-07T01:26:12;101612.53;;;18.43;59.63
77161;BME280;66135;0.000;0.000;2024-01-07T01:28:37;101622.69;;;18.41;59.41
77161;BME280;66135;0.000;0.000;2024-01-07T01:31:02;101620.69;;;18.43;59.59
77161;BME280;66135;0.000;0.000;2024-01-07T01:33:28;101612.09;;;18.38;59.32
77161;BME280;66135;0.000;0.000;2024-01-07T01:35:54;101622.56;;;18.33;59.65
77161;BME280;66135;0.000;0.000;2024-01-07T01:38:19;101629.88;;;18.32;59.57
77161;BME280;66135;0.000;0.000;2024-01-07T01:40:51;101626.69;;;18.37;59.26
77161;BME280;66135;0.000;0.000;2024-01-07T01:43:26;101625.13;;;18.34;59.20
77161;BME280;66135;0.000;0.000;2024-01-07T01:45:52;101626.31;;;18.32;59.15
77161;BME280;66135;0.000;0.000;2024-01-07T01:48:18;101626.84;;;18.35;59.30
77161;BME280;66135;0.000;0.000;2024-01-07T01:50:44;101627.16;;;18.32;59.33
77161;BME280;66135;0.000;0.000;2024-01-07T01:53:10;101624.47;;;18.32;59.19
77161;BME280;66135;0.000;0.000;2024-01-07T01:55:35;101633.38;;;18.25;59.40
77161;BME280;66135;0.000;0.000;2024-01-07T01:58:01;101633.38;;;18.25;59.45
77161;BME280;66135;0.000;0.000;2024-01-07T02:00:32;101642.50;;;18.24;59.44
77161;BME280;66135;0.000;0.000;2024-01-07T02:02:57;101637.41;;;18.21;59.28
77161;BME280;66135;0.000;0.000;2024-01-07T02:05:25;101645.00;;;18.17;59.64
77161;BME280;66135;0.000;0.000;2024-01-07T02:07:50;101647.69;;;18.17;59.65
77161;BME280;66135;0.000;0.000;2024-01-07T02:10:17;101645.16;;;18.16;59.56
77161;BME280;66135;0.000;0.000;2024-01-07T02:12:42;101648.19;;;18.13;59.40
77161;BME280;66135;0.000;0.000;2024-01-07T02:15:08;101646.00;;;18.16;59.19
77161;BME280;66135;0.000;0.000;2024-01-07T02:17:33;101649.03;;;18.13;59.51
77161;BME280;66135;0.000;0.000;2024-01-07T02:19:59;101654.31;;;18.15;59.45
77161;BME280;66135;0.000;0.000;2024-01-07T02:22:24;101653.28;;;18.16;59.74
77161;BME280;66135;0.000;0.000;2024-01-07T02:24:49;101654.47;;;18.13;59.76
77161;BME280;66135;0.000;0.000;2024-01-07T02:27:14;101655.13;;;18.15;59.29
77161;BME280;66135;0.000;0.000;2024-01-07T02:29:40;101661.75;;;18.13;59.43
77161;BME280;66135;0.000;0.000;2024-01-07T02:32:05;101659.03;;;18.13;59.33
77161;BME280;66135;0.000;0.000;2024-01-07T02:34:31;101662.88;;;18.10;59.44
77161;BME280;66135;0.000;0.000;2024-01-07T02:36:57;101666.63;;;18.09;59.41
77161;BME280;66135;0.000;0.000;2024-01-07T02:39:23;101665.59;;;18.10;59.35
77161;BME280;66135;0.000;0.000;2024-01-07T02:41:49;101666.22;;;18.04;59.65
77161;BME280;66135;0.000;0.000;2024-01-07T02:44:15;101666.22;;;18.04;59.24
77161;BME280;66135;0.000;0.000;2024-01-07T02:46:40;101676.91;;;18.06;59.35
77161;BME280;66135;0.000;0.000;2024-01-07T02:49:05;101671.50;;;18.06;59.21
77161;BME280;66135;0.000;0.000;2024-01-07T02:51:31;101675.06;;;18.06;59.20
77161;BME280;66135;0.000;0.000;2024-01-07T02:53:56;101669.22;;;18.01;59.37
77161;BME280;66135;0.000;0.000;2024-01-07T02:56:21;101669.22;;;18.01;59.37
77161;BME280;66135;0.000;0.000;2024-01-07T02:58:47;101674.09;;;17.97;59.37
77161;BME280;66135;0.000;0.000;2024-01-07T03:01:12;101677.69;;;17.98;59.41
77161;BME280;66135;0.000;0.000;2024-01-07T03:03:38;101676.69;;;17.99;59.31
77161;BME280;66135;0.000;0.000;2024-01-07T03:06:03;101675.28;;;17.95;59.51
77161;BME280;66135;0.000;0.000;2024-01-07T03:08:28;101680.72;;;17.95;59.36
77161;BME280;66135;0.000;0.000;2024-01-07T03:10:54;101683.56;;;17.93;59.27
77161;BME280;66135;0.000;0.000;2024-01-07T03:13:19;101695.56;;;17.91;59.31
77161;BME280;66135;0.000;0.000;2024-01-07T03:15:45;101691.88;;;17.92;59.33
77161;BME280;66135;0.000;0.000;2024-01-07T03:18:10;101702.84;;;17.90;59.45
77161;BME280;66135;0.000;0.000;2024-01-07T03:20:35;101700.28;;;17.89;59.39
77161;BME280;66135;0.000;0.000;2024-01-07T03:23:01;101704.16;;;17.86;59.55
77161;BME280;66135;0.000;0.000;2024-01-07T03:25:26;101708.56;;;17.87;59.23
77161;BME280;66135;0.000;0.000;2024-01-07T03:27:52;101703.31;;;17.86;59.69
77161;BME280;66135;0.000;0.000;2024-01-07T03:30:17;101710.72;;;17.84;59.61
77161;BME280;66135;0.000;0.000;2024-01-07T03:32:43;101707.19;;;17.83;59.64
77161;BME280;66135;0.000;0.000;2024-01-07T03:35:08;101700.91;;;17.83;59.39
77161;BME280;66135;0.000;0.000;2024-01-07T03:37:34;101703.78;;;17.81;59.25
77161;BME280;66135;0.000;0.000;2024-01-07T03:40:00;101707.47;;;17.80;59.36
77161;BME280;66135;0.000;0.000;2024-01-07T03:42:25;101695.91;;;17.78;59.71
77161;BME280;66135;0.000;0.000;2024-01-07T03:44:50;101705.78;;;17.79;59.44
77161;BME280;66135;0.000;0.000;2024-01-07T03:47:16;101704.91;;;17.79;59.35
77161;BME280;66135;0.000;0.000;2024-01-07T03:49:42;101711.50;;;17.76;59.73
77161;BME280;66135;0.000;0.000;2024-01-07T03:52:07;101706.91;;;17.77;59.42
77161;BME280;66135;0.000;0.000;2024-01-07T03:54:33;101717.22;;;17.73;59.33
77161;BME280;66135;0.000;0.000;2024-01-07T03:56:58;101715.53;;;17.72;59.71
77161;BME280;66135;0.000;0.000;2024-01-07T03:59:23;101721.91;;;17.71;59.51
77161;BME280;66135;0.000;0.000;2024-01-07T04:01:51;101719.22;;;17.71;59.63
77161;BME280;66135;0.000;0.000;2024-01-07T04:04:16;101725.81;;;17.69;59.51
77161;BME280;66135;0.000;0.000;2024-01-07T04:06:42;101728.66;;;17.67;59.70
77161;BME280;66135;0.000;0.000;2024-01-07T04:09:07;101732.38;;;17.66;59.85
77161;BME280;66135;0.000;0.000;2024-01-07T04:11:39;101730.66;;;17.65;59.41
77161;BME280;66135;0.000;0.000;2024-01-07T04:14:04;101737.22;;;17.63;59.86
77161;BME280;66135;0.000;0.000;2024-01-07T04:16:30;101736.25;;;17.64;59.70
77161;BME280;66135;0.000;0.000;2024-01-07T04:18:55;101739.09;;;17.62;59.67
77161;BME280;66135;0.000;0.000;2024-01-07T04:21:20;101733.69;;;17.62;59.57
77161;BME280;66135;0.000;0.000;2024-01-07T04:23:46;101736.41;;;17.62;59.77
77161;BME280;66135;0.000;0.000;2024-01-07T04:26:11;101739.22;;;17.61;59.73
77161;BME280;66135;0.000;0.000;2024-01-07T04:28:42;101747.50;;;17.59;59.85
77161;BME280;66135;0.000;0.000;2024-01-07T04:31:08;101745.97;;;17.57;59.64
77161;BME280;66135;0.000;0.000;2024-01-07T04:33:33;101754.09;;;17.57;59.35
77161;BME280;66135;0.000;0.000;2024-01-07T04:35:59;101754.25;;;17.55;59.51
77161;BME280;66135;0.000;0.000;2024-01-07T04:38:26;101756.09;;;17.55;59.49
77161;BME280;66135;0.000;0.000;2024-01-07T04:40:51;101757.13;;;17.54;59.85
77161;BME280;66135;0.000;0.000;2024-01-07T04:43:18;101759.81;;;17.54;59.50
77161;BME280;66135;0.000;0.000;2024-01-07T04:45:43;101756.25;;;17.53;59.72
77161;BME280;66135;0.000;0.000;2024-01-07T04:48:09;101754.53;;;17.52;59.63
77161;BME280;66135;0.000;0.000;2024-01-07T04:50:34;101774.50;;;17.51;59.78
77161;BME280;66135;0.000;0.000;2024-01-07T04:52:59;101774.66;;;17.50;59.50
77161;BME280;66135;0.000;0.000;2024-01-07T04:55:25;101776.66;;;17.48;59.69
77161;BME280;66135;0.000;0.000;2024-01-07T04:57:50;101783.94;;;17.47;59.77
77161;BME280;66135;0.000;0.000;2024-01-07T05:00:15;101783.94;;;17.47;59.79
77161;BME280;66135;0.000;0.000;2024-01-07T05:02:41;101785.06;;;17.45;59.80
77161;BME280;66135;0.000;0.000;2024-01-07T05:05:08;101779.63;;;17.45;59.53
77161;BME280;66135;0.000;0.000;2024-01-07T05:07:34;101786.91;;;17.44;59.90
77161;BME280;66135;0.000;0.000;2024-01-07T05:09:59;101778.06;;;17.42;59.70
77161;BME280;66135;0.000;0.000;2024-01-07T05:12:24;101786.19;;;17.42;59.70
77161;BME280;66135;0.000;0.000;2024-01-07T05:14:51;101780.94;;;17.41;59.67
77161;BME280;66135;0.000;0.000;2024-01-07T05:17:16;101784.78;;;17.38;59.63
77161;BME280;66135;0.000;0.000;2024-01-07T05:19:42;101786.66;;;17.38;59.76
77161;BME280;66135;0.000;0.000;2024-01-07T05:22:07;101796.63;;;17.37;59.83
77161;BME280;66135;0.000;0.000;2024-01-07T05:24:32;101803.88;;;17.37;59.79
77161;BME280;66135;0.000;0.000;2024-01-07T05:26:58;101809.28;;;17.37;59.60
77161;BME280;66135;0.000;0.000;2024-01-07T05:29:23;101803.06;;;17.36;60.03
77161;BME280;66135;0.000;0.000;2024-01-07T05:31:49;101814.00;;;17.35;59.53
77161;BME280;66135;0.000;0.000;2024-01-07T05:34:14;101820.44;;;17.34;59.76
77161;BME280;66135;0.000;0.000;2024-01-07T05:36:39;101821.44;;;17.33;59.59
77161;BME280;66135;0.000;0.000;2024-01-07T05:39:05;101824.28;;;17.31;59.54
77161;BME280;66135;0.000;0.000;2024-01-07T05:41:32;101835.09;;;17.31;59.87
77161;BME280;66135;0.000;0.000;2024-01-07T05:43:57;101833.41;;;17.30;59.97
77161;BME280;66135;0.000;0.000;2024-01-07T05:46:23;101836.28;;;17.29;60.00
77161;BME280;66135;0.000;0.000;2024-01-07T05:48:49;101831.84;;;17.28;59.59
77161;BME280;66135;0.000;0.000;2024-01-07T05:51:15;101839.28;;;17.26;59.73
77161;BME280;66135;0.000;0.000;2024-01-07T05:53:41;101838.25;;;17.27;59.75
77161;BME280;66135;0.000;0.000;2024-01-07T05:56:07;101840.09;;;17.26;59.84
77161;BME280;66135;0.000;0.000;2024-01-07T05:58:32;101841.97;;;17.26;59.83
77161;BME280;66135;0.000;0.000;2024-01-07T06:00:58;101842.97;;;17.25;59.51
77161;BME280;66135;0.000;0.000;2024-01-07T06:03:23;101844.97;;;17.23;59.68
77161;BME280;66135;0.000;0.000;2024-01-07T06:05:49;101852.41;;;17.21;59.83
77161;BME280;66135;0.000;0.000;2024-01-07T06:08:14;101856.81;;;17.22;59.89
77161;BME280;66135;0.000;0.000;2024-01-07T06:10:40;101854.25;;;17.20;59.91
77161;BME280;66135;0.000;0.000;2024-01-07T06:13:05;101872.34;;;17.20;59.78
77161;BME280;66135;0.000;0.000;2024-01-07T06:15:32;101865.38;;;17.17;59.63
77161;BME280;66135;0.000;0.000;2024-01-07T06:17:57;101864.66;;;17.15;59.67
77161;BME280;66135;0.000;0.000;2024-01-07T06:20:23;101862.94;;;17.14;59.94
77161;BME280;66135;0.000;0.000;2024-01-07T06:22:49;101875.63;;;17.14;59.75
77161;BME280;66135;0.000;0.000;2024-01-07T06:25:14;101887.44;;;17.13;60.05
77161;BME280;66135;0.000;0.000;2024-01-07T06:27:39;101879.31;;;17.13;59.58
77161;BME280;66135;0.000;0.000;2024-01-07T06:30:05;101888.44;;;17.12;58.91
77161;BME280;66135;0.000;0.000;2024-01-07T06:32:31;101895.41;;;17.14;59.42
77161;BME280;66135;0.000;0.000;2024-01-07T06:34:58;101883.03;;;17.12;59.40
77161;BME280;66135;0.000;0.000;2024-01-07T06:37:23;101890.28;;;17.11;59.63
77161;BME280;66135;0.000;0.000;2024-01-07T06:39:48;101896.72;;;17.10;59.60
77161;BME280;66135;0.000;0.000;2024-01-07T06:42:14;101904.13;;;17.08;59.65
77161;BME280;66135;0.000;0.000;2024-01-07T06:44:39;101909.53;;;17.08;59.73
77161;BME280;66135;0.000;0.000;2024-01-07T06:47:04;101914.25;;;17.06;59.71
77161;BME280;66135;0.000;0.000;2024-01-07T06:49:30;101915.94;;;17.07;59.42
77161;BME280;66135;0.000;0.000;2024-01-07T06:51:55;101919.34;;;17.09;59.46
77161;BME280;66135;0.000;0.000;2024-01-07T06:54:21;101916.66;;;17.09;59.49
77161;BME280;66135;0.000;0.000;2024-01-07T06:56:46;101925.78;;;17.18;59.02
77161;BME280;66135;0.000;0.000;2024-01-07T06:59:11;101938.31;;;17.28;58.71
77161;BME280;66135;0.000;0.000;2024-01-07T07:01:37;101930.47;;;17.35;58.83
77161;BME280;66135;0.000;0.000;2024-01-07T07:04:04;101937.16;;;17.40;58.57
77161;BME280;66135;0.000;0.000;2024-01-07T07:06:29;101941.34;;;17.54;58.77
77161;BME280;66135;0.000;0.000;2024-01-07T07:08:55;101941.88;;;17.57;58.99
77161;BME280;66135;0.000;0.000;2024-01-07T07:11:20;101939.63;;;17.62;59.04
77161;BME280;66135;0.000;0.000;2024-01-07T07:13:45;101941.88;;;17.67;58.85
77161;BME280;66135;0.000;0.000;2024-01-07T07:16:11;101954.16;;;17.71;59.40
77161;BME280;66135;0.000;0.000;2024-01-07T07:18:37;101953.53;;;17.77;59.25
77161;BME280;66135;0.000;0.000;2024-01-07T07:21:02;101955.84;;;17.81;59.11
77161;BME280;66135;0.000;0.000;2024-01-07T07:23:27;101971.09;;;17.82;59.34
77161;BME280;66135;0.000;0.000;2024-01-07T07:25:53;101965.50;;;17.84;59.87
77161;BME280;66135;0.000;0.000;2024-01-07T07:28:18;101973.34;;;17.87;59.70
77161;BME280;66135;0.000;0.000;2024-01-07T07:30:43;101973.34;;;17.87;59.03
77161;BME280;66135;0.000;0.000;2024-01-07T07:33:09;101985.91;;;17.88;59.11
77161;BME280;66135;0.000;0.000;2024-01-07T07:35:35;101982.03;;;17.90;58.54
77161;BME280;66135;0.000;0.000;2024-01-07T07:38:00;101984.50;;;17.93;58.14
77161;BME280;66135;0.000;0.000;2024-01-07T07:40:26;101992.16;;;17.98;57.97
77161;BME280;66135;0.000;0.000;2024-01-07T07:42:51;101993.59;;;18.02;57.66
77161;BME280;66135;0.000;0.000;2024-01-07T07:45:16;102005.31;;;18.03;58.24
77161;BME280;66135;0.000;0.000;2024-01-07T07:47:42;102007.00;;;18.04;58.31
77161;BME280;66135;0.000;0.000;2024-01-07T07:50:10;102006.00;;;18.05;58.19
77161;BME280;66135;0.000;0.000;2024-01-07T07:52:36;102014.84;;;18.07;58.42
77161;BME280;66135;0.000;0.000;2024-01-07T07:55:01;102010.44;;;18.06;58.13
77161;BME280;66135;0.000;0.000;2024-01-07T07:57:27;102018.41;;;18.07;58.71
77161;BME280;66135;0.000;0.000;2024-01-07T07:59:54;102024.69;;;18.08;58.19
77161;BME280;66135;0.000;0.000;2024-01-07T08:02:19;102023.69;;;18.09;58.37
77161;BME280;66135;0.000;0.000;2024-01-07T08:04:46;102028.97;;;18.10;58.22
77161;BME280;66135;0.000;0.000;2024-01-07T08:07:12;102027.97;;;18.11;58.18
77161;BME280;66135;0.000;0.000;2024-01-07T08:09:37;102042.25;;;18.13;58.15
77161;BME280;66135;0.000;0.000;2024-01-07T08:12:04;102034.78;;;18.15;58.01
77161;BME280;66135;0.000;0.000;2024-01-07T08:14:30;102036.53;;;18.16;58.16
77161;BME280;66135;0.000;0.000;2024-01-07T08:16:55;102031.09;;;18.16;58.00
77161;BME280;66135;0.000;0.000;2024-01-07T08:19:21;102041.78;;;18.18;58.17
77161;BME280;66135;0.000;0.000;2024-01-07T08:21:46;102035.22;;;18.20;58.16
77161;BME280;66135;0.000;0.000;2024-01-07T08:24:11;102041.50;;;18.21;58.10
77161;BME280;66135;0.000;0.000;2024-01-07T08:26:37;102042.34;;;18.21;58.01
77161;BME280;66135;0.000;0.000;2024-01-07T08:29:03;102044.22;;;18.21;57.91
77161;BME280;66135;0.000;0.000;2024-01-07T08:31:28;102059.50;;;18.22;57.84
77161;BME280;66135;0.000;0.000;2024-01-07T08:33:54;102057.06;;;18.19;58.13
77161;BME280;66135;0.000;0.000;2024-01-07T08:36:19;102064.78;;;18.23;58.05
77161;BME280;66135;0.000;0.000;2024-01-07T08:38:44;102067.34;;;18.25;58.01
77161;BME280;66135;0.000;0.000;2024-01-07T08:41:10;102072.75;;;18.25;57.96
77161;BME280;66135;0.000;0.000;2024-01-07T08:43:35;102066.31;;;18.26;58.06
77161;BME280;66135;0.000;0.000;2024-01-07T08:46:00;102072.31;;;18.29;58.32
77161;BME280;66135;0.000;0.000;2024-01-07T08:48:28;102074.88;;;18.31;57.94
77161;BME280;66135;0.000;0.000;2024-01-07T08:50:53;102078.28;;;18.33;57.96
77161;BME280;66135;0.000;0.000;2024-01-07T08:53:19;102087.72;;;18.38;57.90
77161;BME280;66135;0.000;0.000;2024-01-07T08:55:47;102088.88;;;18.45;57.83
77161;BME280;66135;0.000;0.000;2024-01-07T08:58:12;102099.41;;;18.48;58.00
77161;BME280;66135;0.000;0.000;2024-01-07T09:00:39;102093.72;;;18.51;58.13
77161;BME280;66135;0.000;0.000;2024-01-07T09:03:05;102099.56;;;18.56;58.34
77161;BME280;66135;0.000;0.000;2024-01-07T09:05:32;102103.25;;;18.55;58.60
77161;BME280;66135;0.000;0.000;2024-01-07T09:07:57;102107.69;;;18.56;58.50
77161;BME280;66135;0.000;0.000;2024-01-07T09:10:23;102105.00;;;18.56;58.40
77161;BME280;66135;0.000;0.000;2024-01-07T09:12:50;102105.41;;;18.61;58.38
77161;BME280;66135;0.000;0.000;2024-01-07T09:15:18;102116.25;;;18.61;58.29
77161;BME280;66135;0.000;0.000;2024-01-07T09:17:43;102117.25;;;18.60;58.44
77161;BME280;66135;0.000;0.000;2024-01-07T09:20:10;102129.81;;;18.61;58.43
77161;BME280;66135;0.000;0.000;2024-01-07T09:22:36;102125.94;;;18.64;58.52
77161;BME280;66135;0.000;0.000;2024-01-07T09:25:02;102128.38;;;18.67;58.46
77161;BME280;66135;0.000;0.000;2024-01-07T09:27:31;102128.53;;;18.65;58.33
77161;BME280;66135;0.000;0.000;2024-01-07T09:29:57;102123.22;;;18.64;58.60
77161;BME280;66135;0.000;0.000;2024-01-07T09:32:22;102136.38;;;18.68;58.38
77161;BME280;66135;0.000;0.000;2024-01-07T09:34:48;102144.38;;;18.70;58.34
77161;BME280;66135;0.000;0.000;2024-01-07T09:37:13;102151.50;;;18.71;58.41
77161;BME280;66135;0.000;0.000;2024-01-07T09:39:42;102153.38;;;18.70;58.42
77161;BME280;66135;0.000;0.000;2024-01-07T09:42:12;102160.50;;;18.71;58.36
77161;BME280;66135;0.000;0.000;2024-01-07T09:44:38;102151.22;;;18.74;58.56
77161;BME280;66135;0.000;0.000;2024-01-07T09:47:04;102161.94;;;18.75;58.18
77161;BME280;66135;0.000;0.000;2024-01-07T09:49:30;102160.34;;;18.73;58.33
77161;BME280;66135;0.000;0.000;2024-01-07T09:51:59;102165.63;;;18.74;58.33
77161;BME280;66135;0.000;0.000;2024-01-07T09:54:27;102169.06;;;18.76;58.03
77161;BME280;66135;0.000;0.000;2024-01-07T09:57:03;102169.94;;;18.77;58.19
77161;BME280;66135;0.000;0.000;2024-01-07T09:59:29;102169.06;;;18.76;58.13
77161;BME280;66135;0.000;0.000;2024-01-07T10:01:56;102175.34;;;18.77;58.33
77161;BME280;66135;0.000;0.000;2024-01-07T10:04:25;102173.50;;;18.77;58.42
77161;BME280;66135;0.000;0.000;2024-01-07T10:06:51;102177.06;;;18.78;58.36
77161;BME280;66135;0.000;0.000;2024-01-07T10:09:19;102180.78;;;18.77;58.42
77161;BME280;66135;0.000;0.000;2024-01-07T10:11:45;102180.63;;;18.78;58.45
77161;BME280;66135;0.000;0.000;2024-01-07T10:14:10;102180.63;;;18.78;58.28
77161;BME280;66135;0.000;0.000;2024-01-07T10:16:35;102182.22;;;18.81;58.23
77161;BME280;66135;0.000;0.000;2024-01-07T10:19:01;102198.34;;;18.82;58.08
77161;BME280;66135;0.000;0.000;2024-01-07T10:21:26;102191.91;;;18.83;58.22
77161;BME280;66135;0.000;0.000;2024-01-07T10:24:08;102198.19;;;18.84;58.46
77161;BME280;66135;0.000;0.000;2024-01-07T10:26:40;102201.78;;;18.84;58.17
77161;BME280;66135;0.000;0.000;2024-01-07T10:29:09;102205.47;;;18.83;58.36
77161;BME280;66135;0.000;0.000;2024-01-07T10:31:35;102200.19;;;18.82;58.25
77161;BME280;66135;0.000;0.000;2024-01-07T10:34:00;102200.06;;;18.83;58.22
77161;BME280;66135;0.000;0.000;2024-01-07T10:36:26;102206.34;;;18.84;57.95
77161;BME280;66135;0.000;0.000;2024-01-07T10:38:51;102202.63;;;18.85;57.95
77161;BME280;66135;0.000;0.000;2024-01-07T10:41:20;102200.06;;;18.83;58.06
77161;BME280;66135;0.000;0.000;2024-01-07T10:43:47;102207.22;;;18.84;58.03
77161;BME280;66135;0.000;0.000;2024-01-07T10:46:14;102207.22;;;18.84;58.27
77161;BME280;66135;0.000;0.000;2024-01-07T10:48:59;102207.31;;;18.83;58.10
77161;BME280;66135;0.000;0.000;2024-01-07T10:51:31;102206.34;;;18.84;57.81
77161;BME280;66135;0.000;0.000;2024-01-07T10:53:59;102209.63;;;18.87;57.69
77161;BME280;66135;0.000;0.000;2024-01-07T10:56:33;102200.31;;;18.90;57.96
77161;BME280;66135;0.000;0.000;2024-01-07T10:59:01;102210.19;;;18.91;57.71
77161;BME280;66135;0.000;0.000;2024-01-07T11:01:26;102201.31;;;18.89;57.72
77161;BME280;66135;0.000;0.000;2024-01-07T11:03:59;102201.19;;;18.90;57.90
77161;BME280;66135;0.000;0.000;2024-01-07T11:09:03;102205.47;;;18.93;57.99
77161;BME280;66135;0.000;0.000;2024-01-07T11:11:37;102212.59;;;18.94;57.96
77161;BME280;66135;0.000;0.000;2024-01-07T11:14:35;102213.31;;;18.96;58.21
77161;BME280;66135;0.000;0.000;2024-01-07T11:17:08;102214.03;;;18.98;58.09
77161;BME280;66135;0.000;0.000;2024-01-07T11:19:37;102222.19;;;18.98;58.20
77161;BME280;66135;0.000;0.000;2024-01-07T11:22:24;102208.59;;;18.98;58.55
77161;BME280;66135;0.000;0.000;2024-01-07T11:24:53;102212.84;;;19.00;58.54
77161;BME280;66135;0.000;0.000;2024-01-07T11:27:20;102213.56;;;19.02;58.92
77161;BME280;66135;0.000;0.000;2024-01-07T11:29:53;102215.31;;;19.03;58.41
77161;BME280;66135;0.000;0.000;2024-01-07T11:32:19;102220.72;;;19.03;58.65
77161;BME280;66135;0.000;0.000;2024-01-07T11:34:46;102216.13;;;19.04;58.79
77161;BME280;66135;0.000;0.000;2024-01-07T11:37:15;102217.00;;;19.04;58.63
77161;BME280;66135;0.000;0.000;2024-01-07T11:39:47;102219.56;;;19.06;58.81
77161;BME280;66135;0.000;0.000;2024-01-07T11:42:13;102216.00;;;19.05;58.85
77161;BME280;66135;0.000;0.000;2024-01-07T11:44:45;102221.44;;;19.05;58.79
77161;BME280;66135;0.000;0.000;2024-01-07T11:47:10;102220.44;;;19.06;58.75
77161;BME280;66135;0.000;0.000;2024-01-07T11:49:35;102216.00;;;19.05;58.83
77161;BME280;66135;0.000;0.000;2024-01-07T11:52:00;102219.56;;;19.06;58.91
77161;BME280;66135;0.000;0.000;2024-01-07T11:54:27;102224.00;;;19.07;58.95
77161;BME280;66135;0.000;0.000;2024-01-07T11:56:53;102214.84;;;19.08;58.84
77161;BME280;66135;0.000;0.000;2024-01-07T11:59:19;102217.56;;;19.08;58.76
77161;BME280;66135;0.000;0.000;2024-01-07T12:01:44;102213.00;;;19.08;58.90
77161;BME280;66135;0.000;0.000;2024-01-07T12:04:09;102212.13;;;19.08;58.87
77161;BME280;66135;0.000;0.000;2024-01-07T12:06:35;102220.13;;;19.09;58.69
77161;BME280;66135;0.000;0.000;2024-01-07T12:09:01;102212.84;;;19.10;58.94
77161;BME280;66135;0.000;0.000;2024-01-07T12:11:26;102217.88;;;19.05;58.94
77161;BME280;66135;0.000;0.000;2024-01-07T12:13:52;102219.88;;;19.03;58.85
77161;BME280;66135;0.000;0.000;2024-01-07T12:16:17;102221.16;;;18.99;58.75
77161;BME280;66135;0.000;0.000;2024-01-07T12:18:42;102214.19;;;18.96;58.73
77161;BME280;66135;0.000;0.000;2024-01-07T12:21:08;102227.03;;;18.94;58.92
77161;BME280;66135;0.000;0.000;2024-01-07T12:23:36;102219.88;;;18.93;59.17
77161;BME280;66135;0.000;0.000;2024-01-07T12:26:11;102228.19;;;18.92;59.06
77161;BME280;66135;0.000;0.000;2024-01-07T12:28:37;102239.19;;;18.90;58.37
77161;BME280;66135;0.000;0.000;2024-01-07T12:31:04;102229.50;;;18.88;58.71
77161;BME280;66135;0.000;0.000;2024-01-07T12:33:30;102232.47;;;18.85;58.57
77161;BME280;66135;0.000;0.000;2024-01-07T12:36:00;102242.63;;;18.83;58.75
77161;BME280;66135;0.000;0.000;2024-01-07T12:38:26;102238.38;;;18.80;58.56
77161;BME280;66135;0.000;0.000;2024-01-07T12:40:52;102242.22;;;18.78;58.42
77161;BME280;66135;0.000;0.000;2024-01-07T12:43:17;102241.66;;;18.74;58.72
77161;BME280;66135;0.000;0.000;2024-01-07T12:45:42;102245.66;;;18.70;58.40
77161;BME280;66135;0.000;0.000;2024-01-07T12:48:08;102242.25;;;18.68;58.32
77161;BME280;66135;0.000;0.000;2024-01-07T12:50:33;102248.81;;;18.66;58.60
77161;BME280;66135;0.000;0.000;2024-01-07T12:52:58;102249.25;;;18.61;58.59
77161;BME280;66135;0.000;0.000;2024-01-07T12:55:24;102246.81;;;18.58;58.44
77161;BME280;66135;0.000;0.000;2024-01-07T12:57:51;102251.38;;;18.58;58.69
77161;BME280;66135;0.000;0.000;2024-01-07T13:00:17;102255.22;;;18.55;58.70